createdAt,value
2023-03-04T00:03:32.618Z,20.67
2023-03-04T00:08:38.134Z,9.47
2023-03-04T00:13:39.853Z,14.70
2023-03-04T00:18:41.710Z,12.30
2023-03-04T00:23:43.751Z,23.17
2023-03-04T00:28:50.001Z,13.77
2023-03-04T00:33:56.661Z,18.50
2023-03-04T00:39:00.636Z,17.80
2023-03-04T00:44:07.063Z,17.07
2023-03-04T00:49:08.756Z,13.50
2023-03-04T00:54:12.796Z,12.50
2023-03-04T00:59:14.489Z,12.53
2023-03-04T01:04:16.144Z,8.53
2023-03-04T01:09:20.099Z,17.30
2023-03-04T01:14:24.233Z,15.17
2023-03-04T01:19:26.060Z,26.23
2023-03-04T01:24:29.926Z,16.47
2023-03-04T01:29:33.858Z,19.37
2023-03-04T01:34:37.329Z,25.43
2023-03-04T01:39:41.826Z,14.07
2023-03-04T01:44:44.197Z,15.97
2023-03-04T01:49:48.921Z,16.50
2023-03-04T01:54:51.813Z,15.83
2023-03-04T02:00:24.114Z,15.60
2023-03-04T02:05:40.223Z,15.97
2023-03-04T02:10:44.831Z,18.70
2023-03-04T02:15:46.761Z,21.67
2023-03-04T02:20:54.656Z,19.03
2023-03-04T02:26:15.973Z,19.23
2023-03-04T02:31:24.312Z,19.40
2023-03-04T02:36:29.505Z,17.27
2023-03-04T02:41:37.055Z,12.20
2023-03-04T02:46:41.222Z,10.00
2023-03-04T02:51:44.258Z,12.70
2023-03-04T02:56:50.485Z,22.13
2023-03-04T03:01:55.569Z,13.77
2023-03-04T03:06:57.552Z,16.13
2023-03-04T03:12:00.447Z,13.03
2023-03-04T03:17:03.470Z,19.97
2023-03-04T03:22:08.772Z,13.97
2023-03-04T03:27:10.510Z,16.03
2023-03-04T03:32:14.741Z,15.43
2023-03-04T03:37:16.790Z,18.67
2023-03-04T03:42:20.946Z,19.30
2023-03-04T03:47:28.088Z,9.50
2023-03-04T03:52:29.819Z,16.13
2023-03-04T03:57:38.424Z,10.07
2023-03-04T04:02:43.103Z,11.60
2023-03-04T04:07:48.019Z,11.33
2023-03-04T04:12:49.700Z,12.17
2023-03-04T04:17:53.627Z,21.47
2023-03-04T04:22:59.940Z,14.30
2023-03-04T04:28:01.693Z,11.43
2023-03-04T04:33:04.860Z,25.83
2023-03-04T04:38:11.480Z,16.87
2023-03-04T04:43:15.445Z,17.45
2023-03-04T04:48:17.208Z,16.30
2023-03-04T04:53:19.000Z,22.87
2023-03-04T04:58:20.707Z,21.53
2023-03-04T05:03:27.149Z,18.43
2023-03-04T05:08:31.094Z,18.63
2023-03-04T05:13:35.712Z,30.57
2023-03-04T05:18:37.608Z,22.00
2023-03-04T05:23:43.479Z,25.63
2023-03-04T05:28:45.515Z,25.43
2023-03-04T05:33:49.552Z,19.13
2023-03-04T05:38:53.518Z,22.10
2023-03-04T05:43:57.410Z,15.07
2023-03-04T05:49:01.453Z,23.53
2023-03-04T05:54:05.532Z,18.67
2023-03-04T05:59:09.438Z,30.43
2023-03-04T06:04:13.272Z,27.33
2023-03-04T06:09:15.021Z,20.63
2023-03-04T06:14:16.944Z,30.07
2023-03-04T06:19:21.152Z,25.73
2023-03-04T06:24:22.938Z,32.27
2023-03-04T06:29:29.461Z,25.83
2023-03-04T06:34:31.422Z,31.43
2023-03-04T06:39:35.654Z,28.40
2023-03-04T06:44:37.354Z,28.73
2023-03-04T06:49:41.279Z,29.60
2023-03-04T06:54:42.978Z,37.33
2023-03-04T06:59:44.684Z,34.80
2023-03-04T07:04:48.772Z,17.67
2023-03-04T07:09:50.510Z,23.93
2023-03-04T07:14:59.431Z,31.87
2023-03-04T07:20:01.143Z,27.70
2023-03-04T07:25:06.005Z,26.43
2023-03-04T07:30:11.216Z,27.37
2023-03-04T07:35:12.994Z,28.97
2023-03-04T07:40:19.593Z,24.07
2023-03-04T07:45:24.121Z,20.93
2023-03-04T07:50:28.351Z,13.73
2023-03-04T07:55:31.602Z,18.10
2023-03-04T08:00:34.115Z,27.30
2023-03-04T08:05:39.591Z,25.50
2023-03-04T08:10:43.618Z,30.20
2023-03-04T08:15:45.341Z,22.83
2023-03-04T08:20:49.327Z,27.63
2023-03-04T08:25:54.140Z,31.17
2023-03-04T08:30:58.206Z,29.17
2023-03-04T08:35:59.974Z,31.27
2023-03-04T08:41:04.445Z,30.77
2023-03-04T08:46:08.846Z,28.67
2023-03-04T08:51:15.354Z,22.33
2023-03-04T08:56:17.823Z,32.20
2023-03-04T09:01:25.584Z,30.87
2023-03-04T09:06:30.274Z,22.37
2023-03-04T09:11:32.057Z,19.23
2023-03-04T09:16:36.351Z,28.60
2023-03-04T09:21:40.423Z,22.63
2023-03-04T09:26:45.903Z,19.63
2023-03-04T09:31:49.824Z,20.50
2023-03-04T09:36:54.146Z,15.07
2023-03-04T09:42:09.022Z,32.57
2023-03-04T09:47:28.705Z,27.87
2023-03-04T09:52:55.019Z,22.67
2023-03-04T09:58:09.075Z,20.33
2023-03-04T10:03:20.347Z,27.93
2023-03-04T10:08:33.316Z,33.03
2023-03-04T10:13:55.687Z,23.67
2023-03-04T10:19:19.321Z,22.33
2023-03-04T10:24:25.100Z,22.13
2023-03-04T10:29:28.896Z,23.33
2023-03-04T10:34:30.816Z,17.93
2023-03-04T10:39:44.010Z,23.10
2023-03-04T10:45:00.304Z,25.73
2023-03-04T10:50:07.024Z,23.93
2023-03-04T10:55:18.057Z,34.83
2023-03-04T11:00:26.469Z,20.60
2023-03-04T11:05:36.582Z,23.30
2023-03-04T11:10:45.999Z,21.30
2023-03-04T11:15:58.214Z,25.57
2023-03-04T11:21:02.435Z,29.77
2023-03-04T11:26:39.954Z,31.53
2023-03-04T11:31:55.780Z,32.17
2023-03-04T11:37:21.485Z,30.57
2023-03-04T11:42:43.019Z,28.33
2023-03-04T11:48:03.199Z,20.87
2023-03-04T11:53:12.527Z,30.17
2023-03-04T11:58:43.883Z,28.13
2023-03-04T12:04:09.325Z,28.50
2023-03-04T12:09:21.334Z,33.27
2023-03-04T12:14:28.653Z,34.03
2023-03-04T12:20:30.273Z,24.73
2023-03-04T12:25:39.140Z,32.83
2023-03-04T12:30:58.718Z,25.93
2023-03-04T12:36:02.935Z,30.53
2023-03-04T12:41:37.403Z,18.47
2023-03-04T12:47:00.104Z,26.83
2023-03-04T12:52:39.540Z,22.43
2023-03-04T12:57:42.220Z,26.07
2023-03-04T13:03:06.546Z,25.50
2023-03-04T13:08:13.783Z,28.13
2023-03-04T13:13:40.657Z,22.63
2023-03-04T13:18:45.163Z,17.87
2023-03-04T13:23:49.074Z,21.17
2023-03-04T13:29:12.997Z,16.53
2023-03-04T13:34:48.976Z,15.97
2023-03-04T13:40:27.507Z,18.17
2023-03-04T13:45:47.252Z,20.50
2023-03-04T13:50:49.652Z,16.30
2023-03-04T13:56:31.343Z,19.83
2023-03-04T14:01:49.310Z,19.13
2023-03-04T14:06:53.133Z,20.53
2023-03-04T14:12:05.781Z,18.60
2023-03-04T14:17:17.904Z,15.30
2023-03-04T14:22:28.007Z,21.17
2023-03-04T14:27:33.093Z,15.50
2023-03-04T14:32:35.064Z,18.70
2023-03-04T14:37:50.047Z,18.53
2023-03-04T14:42:59.726Z,30.60
2023-03-04T14:48:05.645Z,18.40
2023-03-04T14:53:07.357Z,16.77
2023-03-04T14:58:20.072Z,13.13
2023-03-04T15:03:34.442Z,17.60
2023-03-04T15:08:38.082Z,24.03
2023-03-04T15:13:45.887Z,20.17
2023-03-04T15:19:20.872Z,26.43
2023-03-04T15:24:22.630Z,24.53
2023-03-04T15:29:28.916Z,27.83
2023-03-04T15:34:31.488Z,27.07
2023-03-04T15:39:35.588Z,22.50
2023-03-04T15:44:42.123Z,24.50
2023-03-04T15:49:49.498Z,30.90
2023-03-04T15:54:55.572Z,24.40
2023-03-04T15:59:58.119Z,28.57
2023-03-04T16:05:05.450Z,19.80
2023-03-04T16:10:12.686Z,22.33
2023-03-04T16:15:30.247Z,30.80
2023-03-04T16:20:37.654Z,23.23
2023-03-04T16:25:42.732Z,22.13
2023-03-04T16:30:44.806Z,35.17
2023-03-04T16:35:52.306Z,21.40
2023-03-04T16:40:58.222Z,15.23
2023-03-04T16:46:03.167Z,15.33
2023-03-04T16:51:15.288Z,12.60
2023-03-04T16:56:20.542Z,17.67
2023-03-04T17:01:27.165Z,16.73
2023-03-04T17:06:28.984Z,15.47
2023-03-04T17:11:33.702Z,16.87
2023-03-04T17:16:36.077Z,24.23
2023-03-04T17:21:45.175Z,21.90
2023-03-04T17:26:53.631Z,13.77
2023-03-04T17:31:55.523Z,14.80
2023-03-04T17:36:59.369Z,15.00
2023-03-04T17:42:06.135Z,16.20
2023-03-04T17:47:10.490Z,22.43
2023-03-04T17:52:14.788Z,16.20
2023-03-04T17:57:21.137Z,12.50
2023-03-04T18:02:23.311Z,10.67
2023-03-04T18:07:25.112Z,9.20
2023-03-04T18:12:26.847Z,21.10
2023-03-04T18:17:28.607Z,13.27
2023-03-04T18:22:31.209Z,14.10
2023-03-04T18:27:35.559Z,16.87
2023-03-04T18:32:51.024Z,13.50
2023-03-04T18:37:55.801Z,15.53
2023-03-04T18:43:00.200Z,14.03
2023-03-04T18:48:05.309Z,14.57
2023-03-04T18:53:06.990Z,20.57
2023-03-04T18:58:08.734Z,16.00
2023-03-04T19:03:12.211Z,8.63
2023-03-04T19:08:17.469Z,12.17
2023-03-04T19:13:21.898Z,13.60
2023-03-04T19:18:28.317Z,19.03
2023-03-04T19:23:30.459Z,20.43
2023-03-04T19:28:34.998Z,14.03
2023-03-04T19:33:42.389Z,17.43
2023-03-04T19:38:44.157Z,13.47
2023-03-04T19:43:46.090Z,13.10
2023-03-04T19:48:52.763Z,16.97
2023-03-04T19:53:56.661Z,18.70
2023-03-04T19:59:06.625Z,24.53
2023-03-04T20:04:11.381Z,13.80
2023-03-04T20:09:18.926Z,8.83
2023-03-04T20:14:20.624Z,7.40
2023-03-04T20:19:22.420Z,8.23
2023-03-04T20:24:29.035Z,12.40
2023-03-04T20:29:33.081Z,12.47
2023-03-04T20:34:36.901Z,17.07
2023-03-04T20:39:38.703Z,11.77
2023-03-04T20:44:40.462Z,14.30
2023-03-04T20:49:42.203Z,13.07
2023-03-04T20:54:44.160Z,12.77
2023-03-04T20:59:48.194Z,11.40
2023-03-04T21:04:50.126Z,7.40
2023-03-04T21:09:51.902Z,12.43
2023-03-04T21:14:55.877Z,11.87
2023-03-04T21:19:57.634Z,23.33
2023-03-04T21:25:01.574Z,20.13
2023-03-04T21:30:03.436Z,13.10
2023-03-04T21:35:05.592Z,11.97
2023-03-04T21:40:11.053Z,13.87
2023-03-04T21:45:12.763Z,17.80
2023-03-04T21:50:17.254Z,13.90
2023-03-04T21:55:21.559Z,20.57
2023-03-04T22:00:23.346Z,15.63
2023-03-04T22:05:25.100Z,22.97
2023-03-04T22:10:31.500Z,13.37
2023-03-04T22:15:33.213Z,14.80
2023-03-04T22:20:39.098Z,7.80
2023-03-04T22:25:41.486Z,16.63
2023-03-04T22:30:45.436Z,15.50
2023-03-04T22:35:47.164Z,14.23
2023-03-04T22:40:51.832Z,12.83
2023-03-04T22:45:54.535Z,14.03
2023-03-04T22:50:58.479Z,13.10
2023-03-04T22:56:00.148Z,13.20
2023-03-04T23:01:03.226Z,10.40
2023-03-04T23:06:15.360Z,11.13
2023-03-04T23:11:26.440Z,9.73
2023-03-04T23:16:33.051Z,8.27
2023-03-04T23:21:38.113Z,12.93
2023-03-04T23:26:40.927Z,6.27
2023-03-04T23:31:44.232Z,7.60
2023-03-04T23:36:45.928Z,7.50
2023-03-04T23:41:49.710Z,10.43
2023-03-04T23:46:51.387Z,11.50
2023-03-04T23:51:55.311Z,9.67
2023-03-04T23:57:02.125Z,9.50
